KPKV

Calhoun County Airport

Port Lavaca, Texas, USA
METAR KPKV 151855Z AUTO 18010G15KT 10SM BKN012 23/19 A2977 RMK AO2 T02320192
Observed Flight Rules
Feb-15 @ 18:55 UTC (16 minutes ago) Marginal Visual Flight Rules
Wind Visibility Clouds
180° at 10 knots
 Gusting to 15 knots
10 miles
  • Broken at 1,200' AGL
Temperatures Readings
Current 23°C / 73°F
Dewpoint 19°C / 66°F
Humidity 78%
Altimeter 29.77" Hg
Pressure 1008.12 hPa
Elevation 9
METAR KPKV 151855Z AUTO 18010G15KT 10SM BKN012 23/19 A2977 RMK AO2 T02320192
Observed Flight Rules
Feb-15 @ 18:55 UTC
(16 minutes ago)
MVFR
Wind Visibility
180° at 10 knots
 Gusting to 15 knots
10 miles
Clouds
  • Broken at 1,200' AGL
Temperature Dewpoint
23°C / 73°F 19°C / 66°F
Humidity Altimeter Pressure
78% 29.77" Hg 1008.12 hPa